Time;durP1;ratioP1;P1;durP2;ratioP2;P2;SDS_P1;SDS_P2;PMS_P1;PMS_P2;Temp;Humidity;BMP_temperature;BMP_pressure;BME280_temperature;BME280_humidity;BME280_pressure;Samples;Min_cycle;Max_cycle;Signal;HPM_P1;HPM_P2
2021/10/26 00:01:52;;;;;;;18.48;9.85;;;;;;;15.79;60.60;101703.91;4845376;28;121737;-70
2021/10/26 00:04:21;;;;;;;16.75;9.90;;;;;;;15.79;60.63;101709.25;4845220;29;124237;-70
2021/10/26 00:06:48;;;;;;;17.92;10.27;;;;;;;15.80;60.64;101713.63;4854019;28;115066;-69
2021/10/26 00:09:16;;;;;;;16.90;9.38;;;;;;;15.79;60.47;101709.25;4846759;28;112972;-70
2021/10/26 00:11:44;;;;;;;18.85;9.70;;;;;;;15.79;60.61;101698.56;4847972;28;123201;-70
2021/10/26 00:14:11;;;;;;;15.57;9.43;;;;;;;15.77;60.55;101710.19;4843065;29;124731;-70
2021/10/26 00:16:38;;;;;;;17.83;9.93;;;;;;;15.77;60.67;101712.00;4847461;29;114501;-69
2021/10/26 00:19:05;;;;;;;16.63;9.52;;;;;;;15.76;60.67;101710.25;4847972;28;114290;-70
2021/10/26 00:21:33;;;;;;;17.40;10.05;;;;;;;15.75;60.61;101709.41;4840654;28;123510;-69
2021/10/26 00:24:00;;;;;;;20.42;10.35;;;;;;;15.76;61.02;101705.78;4849137;28;124366;-70
2021/10/26 00:26:27;;;;;;;18.77;10.40;;;;;;;15.77;60.48;101712.00;4851752;29;115538;-70
2021/10/26 00:28:56;;;;;;;17.60;9.95;;;;;;;15.77;60.75;101718.19;4849353;28;114198;-70
2021/10/26 00:31:24;;;;;;;20.67;9.93;;;;;;;15.77;60.53;101717.34;4844247;29;124312;-70
2021/10/26 00:33:52;;;;;;;19.50;9.88;;;;;;;15.77;60.73;101720.00;4845642;28;123114;-71
2021/10/26 00:36:19;;;;;;;18.77;9.85;;;;;;;15.77;60.72;101723.53;4847488;28;113243;-69
2021/10/26 00:38:46;;;;;;;19.63;9.82;;;;;;;15.79;60.90;101725.28;4850358;28;114247;-70
2021/10/26 00:41:14;;;;;;;20.52;10.57;;;;;;;15.80;60.45;101732.31;4824743;29;124291;-70
2021/10/26 00:43:42;;;;;;;19.15;10.45;;;;;;;15.79;60.82;101736.81;4846152;28;123767;-70
2021/10/26 00:46:10;;;;;;;19.23;10.48;;;;;;;15.80;60.71;101732.31;4849442;28;114263;-70
2021/10/26 00:48:37;;;;;;;17.75;10.40;;;;;;;15.80;60.84;101726.97;4851760;29;113345;-70
2021/10/26 00:51:07;;;;;;;18.58;10.25;;;;;;;15.79;60.80;101728.81;4851403;29;122684;-70
2021/10/26 00:53:34;;;;;;;17.10;10.02;;;;;;;15.79;60.68;101730.63;4843810;28;122927;-70
2021/10/26 00:56:04;;;;;;;18.75;10.57;;;;;;;15.77;60.67;101728.88;4848461;28;113766;-70
2021/10/26 00:58:31;;;;;;;20.85;10.63;;;;;;;15.75;60.88;101725.44;4849128;28;113640;-69
2021/10/26 01:00:59;;;;;;;18.40;10.68;;;;;;;15.76;60.78;101727.16;4847328;29;123223;-70
2021/10/26 01:03:27;;;;;;;20.30;10.43;;;;;;;15.77;60.89;101734.22;4848407;28;125133;-70
2021/10/26 01:05:56;;;;;;;19.17;10.75;;;;;;;15.77;60.90;101734.22;4839745;28;115539;-70
2021/10/26 01:08:23;;;;;;;18.60;10.25;;;;;;;15.76;60.91;101737.84;4847515;28;112988;-69
2021/10/26 01:10:51;;;;;;;22.73;10.30;;;;;;;15.76;60.80;101753.88;4826461;29;123364;-69
2021/10/26 01:13:22;;;;;;;17.98;10.48;;;;;;;15.76;61.01;101743.19;4832591;28;122535;-70
2021/10/26 01:15:54;;;;;;;18.38;10.77;;;;;;;15.77;60.93;101750.25;4842690;28;113454;-70
2021/10/26 01:18:31;;;;;;;20.08;10.52;;;;;;;15.79;60.93;101746.66;4848424;28;114987;-69
2021/10/26 01:20:58;;;;;;;17.50;11.07;;;;;;;15.81;60.83;101739.41;4855912;28;123619;-70
2021/10/26 01:23:26;;;;;;;20.98;11.68;;;;;;;15.79;60.82;101735.97;4843549;29;122897;-69
2021/10/26 01:25:54;;;;;;;18.23;11.27;;;;;;;15.80;60.94;101743.00;4847465;28;113112;-69
2021/10/26 01:28:22;;;;;;;20.40;11.27;;;;;;;15.80;60.87;101743.00;4849397;28;114160;-69
2021/10/26 01:30:49;;;;;;;21.13;11.55;;;;;;;15.79;61.00;101741.31;4842090;28;123906;-70
2021/10/26 01:33:35;;;;;;;20.40;11.15;;;;;;;15.78;60.80;101740.41;4848434;29;124592;-70
2021/10/26 01:36:17;;;;;;;18.15;10.82;;;;;;;15.77;61.00;101738.69;4841192;29;113279;-69
2021/10/26 01:38:44;;;;;;;22.38;11.57;;;;;;;15.76;61.03;101737.84;4846261;28;114695;-70
2021/10/26 01:41:12;;;;;;;20.67;11.38;;;;;;;15.76;60.95;101740.53;4843958;28;123456;-69
2021/10/26 01:43:41;;;;;;;23.10;11.52;;;;;;;15.75;60.98;101741.44;4842002;29;123526;-70
2021/10/26 01:46:08;;;;;;;20.08;10.93;;;;;;;15.75;61.17;101752.13;4840067;28;113631;-70
2021/10/26 01:48:38;;;;;;;20.67;11.00;;;;;;;15.75;61.04;101757.47;4843014;29;113511;-70
2021/10/26 01:51:05;;;;;;;19.65;11.02;;;;;;;15.76;61.11;101759.22;4844710;28;123351;-70
2021/10/26 01:53:34;;;;;;;19.00;11.32;;;;;;;15.76;61.05;101758.34;4839787;29;124909;-70
2021/10/26 01:56:04;;;;;;;19.95;11.00;;;;;;;15.76;61.11;101759.22;4848331;29;113966;-70
2021/10/26 01:59:09;;;;;;;21.63;12.55;;;;;;;15.75;61.13;101754.81;4842338;28;114290;-70
2021/10/26 02:01:40;;;;;;;19.65;11.48;;;;;;;15.76;61.18;101764.56;4842466;28;124147;-70
2021/10/26 02:04:14;;;;;;;19.52;11.82;;;;;;;15.76;61.18;101756.53;4836163;28;123257;-70
2021/10/26 02:06:41;;;;;;;21.75;12.00;;;;;;;15.79;61.10;101749.31;4825934;29;114436;-68
2021/10/26 02:09:08;;;;;;;22.40;12.05;;;;;;;15.80;61.12;101748.34;4846450;28;114589;-68
2021/10/26 02:11:38;;;;;;;23.35;12.00;;;;;;;15.83;61.13;101745.53;4852816;28;123362;-68
2021/10/26 02:14:06;;;;;;;20.30;12.52;;;;;;;15.82;61.19;101751.81;4849048;28;123813;-68
2021/10/26 02:16:33;;;;;;;19.77;11.68;;;;;;;15.80;61.16;101745.69;4849745;28;113416;-68
2021/10/26 02:19:02;;;;;;;20.80;12.05;;;;;;;15.80;61.24;101759.03;4852911;29;113257;-70
2021/10/26 02:21:30;;;;;;;25.52;12.10;;;;;;;15.79;61.18;101752.84;4851996;28;122207;-69
2021/10/26 02:23:57;;;;;;;25.17;12.15;;;;;;;15.80;61.23;101753.69;4860945;28;123282;-69
2021/10/26 02:26:27;;;;;;;25.77;12.32;;;;;;;15.81;61.34;101750.09;4809402;28;1145434;-69
2021/10/26 02:28:54;;;;;;;20.83;12.15;;;;;;;15.82;61.26;101757.16;4838129;28;113515;-68
2021/10/26 02:31:21;;;;;;;20.27;11.93;;;;;;;15.81;61.15;101761.63;4844566;29;123339;-69
2021/10/26 02:33:49;;;;;;;22.55;11.90;;;;;;;15.80;61.25;101762.56;4852365;29;124966;-69
2021/10/26 02:36:16;;;;;;;20.15;11.27;;;;;;;15.82;61.27;101757.16;4850264;29;113324;-69
2021/10/26 02:38:43;;;;;;;22.77;12.88;;;;;;;15.80;61.34;101753.69;4836898;29;113309;-68
2021/10/26 02:41:12;;;;;;;24.40;12.82;;;;;;;15.81;61.25;101755.44;4850106;28;123837;-69
2021/10/26 02:43:40;;;;;;;22.60;12.50;;;;;;;15.80;61.25;101762.56;4844589;28;123195;-71
2021/10/26 02:46:08;;;;;;;23.60;11.48;;;;;;;15.79;61.24;101762.66;4849696;28;114769;-69
2021/10/26 02:48:35;;;;;;;21.20;11.57;;;;;;;15.77;61.20;101766.28;4844441;28;113967;-68
2021/10/26 02:51:03;;;;;;;22.67;12.10;;;;;;;15.77;61.24;101750.25;4846406;28;124108;-68
2021/10/26 02:53:30;;;;;;;22.23;10.90;;;;;;;15.77;61.31;101760.94;4854359;29;124038;-68
2021/10/26 02:55:57;;;;;;;22.50;11.98;;;;;;;15.74;61.21;101758.41;4848488;28;113621;-68
2021/10/26 02:58:24;;;;;;;22.15;11.88;;;;;;;15.74;61.14;101758.41;4847547;29;113907;-67
2021/10/26 03:00:51;;;;;;;20.65;11.95;;;;;;;15.73;61.34;101756.69;4853577;28;123926;-69
2021/10/26 03:03:21;;;;;;;21.65;11.85;;;;;;;15.73;61.29;101758.47;4851589;28;123593;-68
2021/10/26 03:05:49;;;;;;;21.77;10.88;;;;;;;15.72;61.22;101752.25;4849600;29;113984;-69
2021/10/26 03:08:17;;;;;;;20.55;11.70;;;;;;;15.71;61.25;101755.88;4843096;29;113512;-69
2021/10/26 03:10:45;;;;;;;23.00;12.07;;;;;;;15.72;61.30;101762.94;4848678;28;123729;-69
2021/10/26 03:13:16;;;;;;;21.90;11.18;;;;;;;15.71;61.35;101761.22;4837324;29;123538;-69
2021/10/26 03:15:43;;;;;;;18.90;11.05;;;;;;;15.69;61.31;101757.78;4852984;28;113805;-69
2021/10/26 03:18:17;;;;;;;18.27;11.00;;;;;;;15.67;61.20;101759.66;4849331;28;113416;-69
2021/10/26 03:20:44;;;;;;;19.15;11.32;;;;;;;15.66;61.11;101763.25;4845307;28;122582;-69
2021/10/26 03:23:11;;;;;;;21.42;11.65;;;;;;;15.65;61.24;101772.22;4846207;29;123045;-68
2021/10/26 03:25:41;;;;;;;20.08;10.77;;;;;;;15.63;61.22;101774.09;4839030;28;113405;-69
2021/10/26 03:28:09;;;;;;;22.60;10.75;;;;;;;15.62;61.18;101777.72;4852963;28;114624;-69
2021/10/26 03:30:37;;;;;;;23.67;12.07;;;;;;;15.61;61.28;101775.13;4853193;28;124884;-69
2021/10/26 03:33:24;;;;;;;19.85;10.63;;;;;;;15.58;61.31;101776.16;4854542;28;123355;-68
2021/10/26 03:35:54;;;;;;;21.52;12.65;;;;;;;15.56;61.28;101775.38;4852028;28;114480;-69
2021/10/26 03:38:22;;;;;;;22.33;12.05;;;;;;;15.54;61.31;101774.59;4853007;28;113751;-69
2021/10/26 03:40:50;;;;;;;25.38;12.55;;;;;;;15.51;61.33;101774.72;4852475;28;123960;-69
2021/10/26 03:43:18;;;;;;;25.20;12.70;;;;;;;15.49;61.41;101777.47;4846922;28;122942;-69
2021/10/26 03:45:45;;;;;;;19.98;12.15;;;;;;;15.49;61.48;101781.97;4849629;28;114368;-69
2021/10/26 03:48:13;;;;;;;23.85;12.73;;;;;;;15.48;61.43;101774.88;4854295;28;115064;-69
2021/10/26 03:50:41;;;;;;;21.92;12.57;;;;;;;15.48;61.64;101774.88;4852263;28;124807;-69
2021/10/26 03:53:08;;;;;;;25.05;12.50;;;;;;;15.47;61.54;101786.50;4854082;28;124174;-69
2021/10/26 03:55:37;;;;;;;26.20;12.35;;;;;;;15.47;61.44;101786.50;4841364;28;113567;-69
2021/10/26 03:58:07;;;;;;;23.55;12.32;;;;;;;15.47;61.63;101789.19;4852076;28;113189;-68
2021/10/26 04:00:36;;;;;;;23.83;12.73;;;;;;;15.45;61.65;101785.72;4854415;28;124019;-69
2021/10/26 04:03:17;;;;;;;26.20;12.85;;;;;;;15.45;61.68;101780.41;4842282;28;123303;-69
2021/10/26 04:05:57;;;;;;;24.85;13.02;;;;;;;15.45;61.70;101785.72;4853508;28;113274;-69
2021/10/26 04:08:34;;;;;;;30.13;13.57;;;;;;;15.44;61.69;101789.31;4847249;28;115235;-68
2021/10/26 04:11:06;;;;;;;27.90;12.88;;;;;;;15.44;61.60;101789.31;4840951;28;123251;-68
2021/10/26 04:13:33;;;;;;;24.00;12.90;;;;;;;15.44;61.73;101778.66;4854827;28;122815;-68
2021/10/26 04:16:02;;;;;;;27.65;13.25;;;;;;;15.46;61.75;101782.09;4853927;28;113531;-69
2021/10/26 04:18:29;;;;;;;28.38;13.50;;;;;;;15.47;61.64;101791.84;4851542;29;112768;-69
2021/10/26 04:20:57;;;;;;;27.63;13.65;;;;;;;15.46;61.73;101784.78;4844921;28;123425;-68
2021/10/26 04:23:25;;;;;;;24.05;12.52;;;;;;;15.45;61.63;101791.06;4850874;29;124138;-69
2021/10/26 04:25:52;;;;;;;25.15;13.23;;;;;;;15.45;61.72;101791.06;4854774;28;112293;-68
2021/10/26 04:28:19;;;;;;;24.70;12.70;;;;;;;15.46;61.76;101787.44;4844420;28;114014;-69
2021/10/26 04:30:49;;;;;;;28.25;13.18;;;;;;;15.45;61.63;101791.06;4850682;28;123508;-69
2021/10/26 04:33:20;;;;;;;26.17;12.63;;;;;;;15.45;61.79;101791.06;4831396;29;123007;-69
2021/10/26 04:35:47;;;;;;;27.90;13.38;;;;;;;15.44;61.82;101794.66;4843789;28;113812;-68
2021/10/26 04:38:14;;;;;;;22.02;12.20;;;;;;;15.44;61.85;101794.66;4846746;28;115451;-69
2021/10/26 04:40:43;;;;;;;25.17;12.40;;;;;;;15.43;61.65;101798.28;4843545;29;123207;-68
2021/10/26 04:43:19;;;;;;;27.20;13.25;;;;;;;15.42;61.69;101804.56;4847491;29;122998;-68
2021/10/26 04:45:49;;;;;;;28.90;13.43;;;;;;;15.41;61.69;101817.06;4849175;28;113950;-68
2021/10/26 04:48:19;;;;;;;30.38;13.38;;;;;;;15.40;61.74;101825.13;4846230;28;113540;-69
2021/10/26 04:50:46;;;;;;;27.20;14.07;;;;;;;15.38;61.73;101818.03;4850786;28;123252;-69
2021/10/26 04:53:13;;;;;;;30.25;14.38;;;;;;;15.38;61.90;101823.38;4849043;29;124734;-68
2021/10/26 04:55:49;;;;;;;28.67;13.90;;;;;;;15.40;61.81;101822.47;4850870;28;113218;-68
2021/10/26 04:58:17;;;;;;;28.25;14.02;;;;;;;15.38;61.79;101823.38;4852915;29;113174;-68
2021/10/26 05:00:48;;;;;;;29.20;15.52;;;;;;;15.37;61.98;101818.16;4842353;28;123394;-69
2021/10/26 05:03:15;;;;;;;29.35;14.52;;;;;;;15.37;61.86;101816.34;4848763;28;123401;-69
2021/10/26 05:05:43;;;;;;;30.25;14.63;;;;;;;15.37;61.88;101813.66;4845137;28;113420;-68
2021/10/26 05:08:11;;;;;;;28.85;14.65;;;;;;;15.38;61.97;101818.03;4834509;29;113372;-69
2021/10/26 05:10:38;;;;;;;30.98;15.27;;;;;;;15.39;62.18;101816.28;4829581;29;125220;-69
2021/10/26 05:13:08;;;;;;;28.63;15.00;;;;;;;15.37;61.88;101820.81;4846326;28;125115;-68
2021/10/26 05:15:55;;;;;;;;;;;;;;;15.32;61.60;101813.03;4855200;29;115149;-69
2021/10/26 05:18:45;;;;;;;27.20;14.30;;;;;;;15.31;61.81;101816.66;4849962;28;114556;-69
2021/10/26 05:21:31;;;;;;;31.60;15.20;;;;;;;15.30;61.67;101817.56;4852147;29;124866;-69
2021/10/26 05:24:18;;;;;;;30.05;15.10;;;;;;;15.29;62.02;101823.84;4845460;28;123914;-69
2021/10/26 05:26:53;;;;;;;29.92;14.82;;;;;;;15.30;61.83;101822.91;4824218;28;114219;-69
2021/10/26 05:29:20;;;;;;;31.90;14.23;;;;;;;15.30;61.88;101816.72;4844229;29;115471;-69
2021/10/26 05:31:47;;;;;;;28.25;14.95;;;;;;;15.29;62.06;101818.50;4836333;29;123261;-69
2021/10/26 05:34:15;;;;;;;30.45;15.02;;;;;;;15.29;61.87;101823.84;4849187;28;124134;-69
2021/10/26 05:36:42;;;;;;;29.05;15.48;;;;;;;15.29;62.01;101829.19;4847436;28;113978;-69
2021/10/26 05:39:10;;;;;;;27.25;14.57;;;;;;;15.27;61.90;101835.53;4845872;28;114342;-69
2021/10/26 05:41:37;;;;;;;29.08;15.13;;;;;;;15.26;62.01;101834.69;4842844;29;124207;-69
2021/10/26 05:44:04;;;;;;;31.90;15.32;;;;;;;15.26;61.99;101837.34;4850442;28;124242;-68
2021/10/26 05:46:32;;;;;;;28.85;14.07;;;;;;;15.27;62.23;101844.41;4843995;28;113386;-69
2021/10/26 05:49:00;;;;;;;29.70;15.05;;;;;;;15.27;61.88;101841.75;4846095;28;114110;-68
2021/10/26 05:51:27;;;;;;;28.27;14.65;;;;;;;15.25;61.96;101840.94;4847769;28;124217;-68
2021/10/26 05:53:54;;;;;;;33.28;15.32;;;;;;;15.25;62.02;101848.97;4847085;28;123521;-68
2021/10/26 05:56:23;;;;;;;30.08;14.82;;;;;;;15.24;62.09;101847.25;4849918;29;116011;-68
2021/10/26 05:58:54;;;;;;;29.83;15.07;;;;;;;15.23;61.97;101856.16;4852360;28;113566;-69
2021/10/26 06:01:22;;;;;;;30.40;15.38;;;;;;;15.23;62.17;101856.16;4841960;28;123420;-70
2021/10/26 06:03:50;;;;;;;31.73;16.00;;;;;;;15.23;61.99;101861.50;4841645;29;122961;-69
2021/10/26 06:06:18;;;;;;;29.30;14.77;;;;;;;15.23;62.07;101866.84;4850897;29;113634;-69
2021/10/26 06:08:46;;;;;;;31.48;15.38;;;;;;;15.23;61.96;101866.00;4845086;28;113321;-69
2021/10/26 06:11:18;;;;;;;31.02;15.10;;;;;;;15.21;62.15;101874.06;4851081;29;123244;-69
2021/10/26 06:13:59;;;;;;;33.08;15.15;;;;;;;15.19;62.00;101870.59;4847986;29;123473;-69
2021/10/26 06:16:31;;;;;;;31.67;15.40;;;;;;;15.17;62.24;101880.50;4844004;29;114235;-69
2021/10/26 06:19:00;;;;;;;34.50;15.70;;;;;;;15.15;62.14;101882.38;4844880;28;115005;-68
2021/10/26 06:21:28;;;;;;;34.38;15.48;;;;;;;15.14;62.21;101888.63;4865217;23;123151;-66
2021/10/26 06:23:56;;;;;;;33.47;15.48;;;;;;;15.14;62.22;101888.63;4849074;29;122971;-66
2021/10/26 06:26:29;;;;;;;30.65;14.65;;;;;;;15.13;62.11;101897.59;4852098;29;113422;-66
2021/10/26 06:29:02;;;;;;;30.15;14.32;;;;;;;15.11;62.17;101894.13;4851618;28;113262;-67
2021/10/26 06:31:31;;;;;;;28.55;14.65;;;;;;;15.09;62.13;101904.03;4846615;28;123539;-66
2021/10/26 06:33:59;;;;;;;24.83;13.40;;;;;;;15.08;62.28;101910.28;4851037;28;123063;-67
2021/10/26 06:36:28;;;;;;;29.67;14.65;;;;;;;15.08;62.17;101907.59;4844327;28;113983;-66
2021/10/26 06:38:55;;;;;;;30.75;14.02;;;;;;;15.06;62.27;101906.81;4846938;28;113491;-66
2021/10/26 06:41:24;;;;;;;29.17;14.70;;;;;;;15.04;62.21;101903.38;4845454;29;123439;-67
2021/10/26 06:44:03;;;;;;;28.58;13.80;;;;;;;15.04;62.15;101908.69;4850735;29;124640;-68
2021/10/26 06:46:40;;;;;;;25.95;13.27;;;;;;;15.04;62.21;101908.69;4856849;29;114736;-67
2021/10/26 06:49:27;;;;;;;28.15;13.63;;;;;;;15.03;62.20;101906.94;4856338;29;114885;-68
2021/10/26 06:52:34;;;;;;;28.45;14.07;;;;;;;14.99;62.34;101904.44;4832163;29;125064;-68
2021/10/26 06:55:20;;;;;;;25.40;13.10;;;;;;;14.97;62.32;101909.00;4833106;29;125198;-68
2021/10/26 06:58:17;;;;;;;27.60;13.35;;;;;;;14.96;62.31;101917.06;4792431;28;115018;-67
2021/10/26 07:01:13;;;;;;;28.75;13.20;;;;;;;14.97;62.36;101925.00;4808333;28;114351;-67
2021/10/26 07:04:13;;;;;;;28.75;13.38;;;;;;;14.96;62.23;101925.91;4817901;29;124488;-67
2021/10/26 07:06:58;;;;;;;28.10;13.43;;;;;;;14.96;62.31;101922.41;4856358;29;122913;-68
2021/10/26 07:10:03;;;;;;;29.63;13.00;;;;;;;14.97;62.25;101926.78;4851845;29;115710;-67
2021/10/26 07:12:34;;;;;;;30.13;12.35;;;;;;;14.96;62.20;101923.25;4856827;28;114326;-65
2021/10/26 07:15:06;;;;;;;28.65;13.57;;;;;;;14.97;62.30;101927.66;4855655;28;123361;-66
2021/10/26 07:17:38;;;;;;;25.88;12.65;;;;;;;14.97;62.41;101925.00;4857295;28;123138;-67
2021/10/26 07:20:08;;;;;;;23.88;12.68;;;;;;;14.99;62.50;101928.47;4854696;29;114245;-65
2021/10/26 07:23:02;;;;;;;26.50;12.88;;;;;;;15.03;62.29;101938.97;4833376;29;114554;-67
2021/10/26 07:25:48;;;;;;;25.05;12.68;;;;;;;15.02;62.36;101942.59;4852253;29;124548;-67
2021/10/26 07:28:15;;;;;;;25.02;12.27;;;;;;;15.01;62.44;101947.03;4846596;29;123670;-66
2021/10/26 07:30:45;;;;;;;28.80;13.05;;;;;;;15.05;62.50;101961.09;4854425;28;113648;-68
2021/10/26 07:33:22;;;;;;;28.95;13.30;;;;;;;15.07;62.40;101964.56;4851157;28;113184;-67
2021/10/26 07:35:54;;;;;;;29.52;12.65;;;;;;;15.08;62.48;101974.31;4838834;29;123625;-67
2021/10/26 07:38:38;;;;;;;24.58;12.75;;;;;;;15.09;62.34;101970.72;4838101;28;123199;-68
2021/10/26 07:41:07;;;;;;;32.28;13.27;;;;;;;15.09;62.36;101970.72;4843030;28;113910;-67
2021/10/26 07:43:52;;;;;;;34.00;14.27;;;;;;;15.10;62.26;101977.78;4851190;29;115302;-67
2021/10/26 07:46:38;;;;;;;32.20;15.20;;;;;;;15.09;62.26;101986.75;4855974;29;124927;-67
2021/10/26 07:49:07;;;;;;;30.08;14.35;;;;;;;15.09;62.45;101976.06;4856880;28;123095;-67
2021/10/26 07:51:35;;;;;;;31.33;14.88;;;;;;;15.11;62.39;101971.53;4855150;28;113510;-67
2021/10/26 07:54:22;;;;;;;34.30;14.55;;;;;;;15.13;62.38;101980.31;4858757;28;113171;-68
2021/10/26 07:57:05;;;;;;;31.70;14.82;;;;;;;15.16;62.34;101972.16;4846480;29;123631;-67
2021/10/26 07:59:34;;;;;;;26.95;14.20;;;;;;;15.20;62.48;101979.09;4858256;28;122951;-67
2021/10/26 08:02:01;;;;;;;26.92;14.00;;;;;;;15.22;62.49;101971.88;4857107;28;114488;-65
2021/10/26 08:04:53;;;;;;;25.60;13.27;;;;;;;15.26;62.51;101981.47;4845816;29;115728;-66
2021/10/26 08:07:25;;;;;;;28.67;13.38;;;;;;;15.28;62.35;101971.59;4852949;29;122992;-67
2021/10/26 08:09:55;;;;;;;29.35;12.80;;;;;;;15.30;62.25;101969.72;4851610;29;122949;-68
2021/10/26 08:12:25;;;;;;;27.05;13.43;;;;;;;15.32;62.19;101978.50;4843709;29;113326;-66
2021/10/26 08:14:54;;;;;;;24.90;12.65;;;;;;;15.32;62.17;101973.19;4841637;29;113190;-67
2021/10/26 08:17:21;;;;;;;28.92;11.45;;;;;;;15.32;62.18;101977.66;4844225;28;122909;-67
2021/10/26 08:51:16;;;;;;;21.33;10.68;;;;;;;15.19;64.53;101972.03;5049504;27;96701;-65
2021/10/26 08:53:45;;;;;;;23.02;10.13;;;;;;;15.40;63.85;101975.47;5048839;27;110211;-65
2021/10/26 08:56:32;;;;;;;19.25;9.85;;;;;;;15.56;63.20;101980.97;5037717;27;124507;-65
2021/10/26 08:59:22;;;;;;;20.05;10.13;;;;;;;15.66;62.84;101982.25;5037532;27;125499;-65
2021/10/26 09:01:55;;;;;;;22.05;10.20;;;;;;;15.73;62.64;101973.03;5045715;27;106513;-64
2021/10/26 09:04:29;;;;;;;19.25;10.23;;;;;;;15.83;62.70;101972.59;5042402;27;109360;-65
2021/10/26 09:06:59;;;;;;;24.15;10.27;;;;;;;15.90;62.47;101960.66;5037070;27;123314;-65
2021/10/26 09:09:29;;;;;;;19.98;10.07;;;;;;;15.97;62.28;101975.44;5036443;27;123617;-65
2021/10/26 09:18:16;;;;;;;19.80;10.75;;;;;;;16.07;62.00;101971.38;5044719;27;124411;-65
2021/10/26 09:21:31;;;;;;;20.70;10.35;;;;;;;16.09;61.86;101974.84;5045392;27;124104;-65
2021/10/26 09:24:07;;;;;;;25.85;11.63;;;;;;;16.12;61.80;101980.03;5044508;27;107841;-65
2021/10/26 09:26:48;;;;;;;21.45;10.80;;;;;;;16.15;61.61;101985.22;5037657;27;110261;-65
2021/10/26 09:29:18;;;;;;;22.45;10.55;;;;;;;16.15;61.48;101995.91;5040849;27;123071;-65
2021/10/26 09:31:46;;;;;;;21.98;10.65;;;;;;;16.14;61.59;101993.31;5041498;27;124235;-65
2021/10/26 09:34:18;;;;;;;17.02;9.40;;;;;;;16.12;61.31;101996.06;5038326;27;107849;-65
2021/10/26 09:36:48;;;;;;;22.10;10.80;;;;;;;16.13;61.31;101997.78;5047273;27;107056;-65
2021/10/26 09:39:19;;;;;;;19.08;10.55;;;;;;;16.13;61.28;101992.44;5043116;27;124766;-65
2021/10/26 09:41:52;;;;;;;20.38;9.73;;;;;;;16.13;61.24;101996.94;5038069;27;124593;-65
2021/10/26 09:44:33;;;;;;;21.42;9.82;;;;;;;16.12;61.18;101990.72;5041947;27;107626;-65
2021/10/26 09:47:07;;;;;;;20.30;10.45;;;;;;;16.12;61.22;101988.06;5031510;27;106441;-65
2021/10/26 09:49:38;;;;;;;21.38;10.35;;;;;;;16.13;61.08;101988.91;5050279;27;124117;-65
2021/10/26 09:52:22;;;;;;;22.45;10.90;;;;;;;16.11;61.10;101983.63;5049681;27;123901;-65
2021/10/26 09:55:13;;;;;;;21.45;9.98;;;;;;;16.11;61.01;101988.13;5044626;27;107470;-65
2021/10/26 09:57:57;;;;;;;26.65;10.45;;;;;;;16.11;61.31;101994.31;5050102;27;110278;-65
2021/10/26 10:00:30;;;;;;;23.08;10.63;;;;;;;16.13;61.23;101997.78;5045120;27;124277;-65
2021/10/26 10:03:02;;;;;;;21.13;11.20;;;;;;;16.12;60.99;101996.06;5056052;27;124698;-65
2021/10/26 10:05:31;;;;;;;22.08;10.40;;;;;;;16.12;61.09;101990.72;5048702;27;107513;-65
2021/10/26 10:08:02;;;;;;;22.85;10.52;;;;;;;16.12;61.25;101996.06;5039294;27;109905;-65
2021/10/26 10:10:37;;;;;;;24.45;10.90;;;;;;;16.11;60.97;102005.03;5039676;27;124287;-65
2021/10/26 10:13:05;;;;;;;23.20;10.98;;;;;;;16.11;61.14;102005.03;5038963;27;123941;-65
2021/10/26 10:15:33;;;;;;;23.40;11.30;;;;;;;16.12;61.21;102006.75;5040388;27;107468;-65
2021/10/26 10:18:01;;;;;;;21.90;11.60;;;;;;;16.16;61.31;102002.09;5056502;27;108966;-65
2021/10/26 10:20:28;;;;;;;21.48;10.68;;;;;;;16.19;61.34;101995.75;5043132;27;124173;-65
2021/10/26 10:22:57;;;;;;;24.67;12.00;;;;;;;16.25;61.39;101995.44;5054816;27;125418;-65
2021/10/26 10:25:26;;;;;;;23.55;11.05;;;;;;;16.28;61.35;101992.63;5045803;27;107654;-65
2021/10/26 10:27:57;;;;;;;24.73;11.75;;;;;;;16.36;61.42;101995.75;5047848;27;110819;-65
2021/10/26 10:30:25;;;;;;;23.95;11.35;;;;;;;16.45;61.42;101987.28;5043265;27;124225;-65
2021/10/26 10:32:52;;;;;;;21.38;11.23;;;;;;;16.51;61.29;101981.59;5049549;27;123775;-65
2021/10/26 10:35:20;;;;;;;19.88;10.75;;;;;;;16.59;61.38;101980.34;5047180;27;107560;-65
2021/10/26 10:37:50;;;;;;;25.05;11.52;;;;;;;16.69;61.44;101981.59;5044904;27;110735;-65
2021/10/26 10:40:23;;;;;;;18.67;10.55;;;;;;;16.77;61.15;101982.06;5035121;27;123961;-65
2021/10/26 10:42:52;;;;;;;24.42;10.90;;;;;;;16.84;61.12;101978.16;5051468;27;124518;-65
2021/10/26 10:45:31;;;;;;;22.48;10.32;;;;;;;16.91;61.10;101984.03;5044723;27;107297;-65
2021/10/26 10:47:59;;;;;;;20.90;10.70;;;;;;;17.00;61.08;101962.13;5050444;27;110182;-65
2021/10/26 10:50:30;;;;;;;19.65;10.20;;;;;;;17.09;60.92;101976.81;5047088;27;124040;-63
2021/10/26 10:53:12;;;;;;;18.13;10.07;;;;;;;17.15;60.63;101963.09;5050868;27;124783;-62
2021/10/26 10:55:51;;;;;;;18.25;10.30;;;;;;;17.20;60.84;101969.06;5042741;27;107473;-63
2021/10/26 10:58:30;;;;;;;17.55;10.05;;;;;;;17.28;60.58;101972.19;5038934;27;110170;-61
2021/10/26 11:01:23;;;;;;;17.05;9.77;;;;;;;17.35;60.59;101967.38;5042671;27;124393;-62
2021/10/26 11:03:53;;;;;;;18.38;9.55;;;;;;;17.41;60.56;101971.50;5048125;27;124047;-61
2021/10/26 11:06:42;;;;;;;15.60;8.85;;;;;;;17.46;60.39;101964.06;5052321;27;107487;-62
2021/10/26 11:09:31;;;;;;;17.30;9.25;;;;;;;17.51;60.32;101962.00;5047504;27;108096;-61
2021/10/26 11:12:13;;;;;;;15.45;8.40;;;;;;;17.58;60.25;101974.09;5032679;27;122991;-62
2021/10/26 11:14:44;;;;;;;17.70;8.25;;;;;;;17.64;59.99;101973.75;5046135;27;124191;-61
2021/10/26 11:17:34;;;;;;;17.58;8.30;;;;;;;17.69;60.15;101960.97;5045841;27;107831;-61
2021/10/26 11:20:31;;;;;;;16.25;8.20;;;;;;;17.76;59.82;101971.31;5047553;27;107989;-63
2021/10/26 11:23:08;;;;;;;14.38;7.72;;;;;;;17.83;59.88;101967.34;5043146;27;125223;-63
2021/10/26 11:25:39;;;;;;;16.88;7.30;;;;;;;17.88;59.60;101954.56;5046793;27;123865;-63
2021/10/26 11:28:16;;;;;;;13.93;6.88;;;;;;;17.92;59.79;101950.75;5043096;27;106730;-63
2021/10/26 11:30:43;;;;;;;13.30;7.15;;;;;;;17.98;59.49;101947.72;5040227;27;106798;-63
2021/10/26 11:33:12;;;;;;;11.90;6.20;;;;;;;18.02;59.43;101943.88;5034973;27;123323;-63
2021/10/26 11:35:52;;;;;;;9.85;5.93;;;;;;;18.08;59.65;101935.50;5036681;27;124338;-63
2021/10/26 11:38:46;;;;;;;9.70;5.72;;;;;;;18.19;59.71;101931.31;5035848;27;107951;-63
2021/10/26 11:41:17;;;;;;;13.60;5.90;;;;;;;18.29;59.27;101917.25;5037242;27;107637;-62
2021/10/26 11:43:47;;;;;;;10.70;4.63;;;;;;;18.39;59.27;101925.59;5042722;27;124781;-62
2021/10/26 11:46:25;;;;;;;10.15;4.80;;;;;;;18.47;59.20;101923.31;5052168;27;122793;-62
2021/10/26 11:48:58;;;;;;;9.40;4.70;;;;;;;18.56;58.88;101921.03;5046631;27;107480;-62
2021/10/26 11:51:39;;;;;;;8.57;4.28;;;;;;;18.64;58.82;101921.41;5039790;27;107213;-62
2021/10/26 11:54:17;;;;;;;10.50;4.13;;;;;;;18.70;58.57;101929.06;5033487;27;124147;-62
2021/10/26 11:56:53;;;;;;;8.38;4.18;;;;;;;18.75;58.40;101929.66;5043192;27;124257;-62
2021/10/26 11:59:22;;;;;;;7.50;3.90;;;;;;;18.76;58.05;101931.41;5049529;27;107672;-61
2021/10/26 12:02:03;;;;;;;11.73;3.88;;;;;;;18.78;57.77;101929.47;5034004;27;109740;-62
2021/10/26 12:04:35;;;;;;;7.28;3.60;;;;;;;18.78;57.73;101934.84;5043707;27;123656;-62
2021/10/26 12:07:06;;;;;;;11.55;3.70;;;;;;;18.76;57.54;101931.41;5036549;27;123952;-61